Terminal Aerodrome Forecast
Issued by NWS Buffalo, NY

Home | Current Version | Previous Version | Text Only | Print | Product List | Glossary On
Versions: 1 2 3 4 5 6 7 8 9 10 11 12 13 14 15 16 17 18 19 20 21 22 23 24 25 26
000
FTUS41 KBUF 050907 AAB
TAFROC
TAF AMD
KROC 050907Z 0509/0606 28004KT 6SM BR OVC050
     FM051100 01004KT 5SM BR VCFG SCT001 BKN050
     FM051400 06005KT P6SM BKN250
     FM060200 VRB03KT P6SM VCSH BKN100=

USA.gov is the U.S. government's official web portal to all federal, state and local government web resources and services.